ADDS METAR Data INFO
IDs: Format: Raw Decoded Include TAF

Data at: 1529 UTC 18 Jun 2018

KIFA 181515Z AUTO 22007KT 10SM CLR 27/23 A2997 RMK AO2 T02710227
KIFA 181455Z AUTO 19007KT 10SM SCT095 27/23 A2997 RMK AO2 T02650229
KIFA 181435Z AUTO 20005KT 10SM SCT095 26/23 A2997 RMK AO2 T02600230
KIFA 181415Z AUTO 20006KT 10SM SCT095 26/23 A2997 RMK AO2 T02550226
KIFA 181355Z AUTO 19005KT 10SM CLR 25/23 A2997 RMK AO2 T02510227
KIFA 181335Z AUTO 17003KT 10SM CLR 25/23 A2996 RMK AO2 T02490230
KIFA 181315Z AUTO 00000KT 10SM SCT080 24/23 A2996 RMK AO2 T02440232
KIFA 181255Z AUTO 00000KT 10SM BKN080 24/23 A2996 RMK AO2 T02410230
KIFA 181235Z AUTO 00000KT 10SM BKN080 24/23 A2997 RMK AO2 T02410230
KIFA 181215Z AUTO 00000KT 10SM BKN080 24/23 A2997 RMK AO2 T02400227
KIFA 181155Z AUTO 00000KT 10SM SCT080 24/23 A2996 RMK AO2 60012 7//// T02360226 10280 20225
KIFA 181135Z AUTO 00000KT 7SM CLR 23/22 A2995 RMK AO2 T02270220
KIFA 181115Z AUTO 00000KT 10SM CLR 23/22 A2995 RMK AO2 T02250216
KIFA 181055Z AUTO 00000KT 10SM CLR 23/22 A2995 RMK AO2 T02270217
KIFA 181035Z AUTO 20003KT 10SM CLR 23/22 A2994 RMK AO2 T02330220
KIFA 181015Z AUTO 22004KT 10SM CLR 23/22 A2994 RMK AO2 T02330222
KIFA 180955Z AUTO 22003KT 10SM CLR 23/22 A2994 RMK AO2 T02330221
KIFA 180935Z AUTO 23003KT 10SM CLR 23/22 A2993 RMK AO2 T02330222
KIFA 180915Z AUTO 23004KT 10SM SCT085 24/23 A2992 RMK AO2 T02370225
KIFA 180855Z AUTO 25004KT 10SM SCT075 BKN095 BKN110 24/23 A2992 RMK AO2 60012 T02440226
KIFA 180835Z AUTO 27007KT 10SM OVC070 25/23 A2993 RMK AO2 T02490226
KIFA 180755Z AUTO 24005KT 10SM -RA SCT050 BKN070 OVC090 25/23 A2992 RMK AO2 P0011 T02520225
KIFA 180735Z AUTO 20008KT 10SM SCT022 BKN070 OVC090 26/22 A2991 RMK AO2 P0011 T02600223
KIFA 180715Z AUTO 21018G22KT 5SM +RA SCT019 SCT033 OVC070 27/22 A2991 RMK AO2 P0006 T02650221
KIFA 180655Z AUTO 19011KT 10SM BKN070 BKN100 BKN120 27/22 A2990 RMK AO2 T02710219
KIFA 180635Z AUTO 19010KT 10SM SCT080 SCT100 BKN120 28/22 A2990 RMK AO2 T02780215
KIFA 180615Z AUTO 19011KT 10SM SCT100 OVC120 28/22 A2990 RMK AO2 T02800215
KIFA 180555Z AUTO 19013KT 10SM OVC120 28/22 A2990 RMK AO2 T02780216 10309 20271
KIFA 180515Z AUTO 18010KT 10SM BKN120 28/22 A2990 RMK AO2 T02790218
KIFA 180455Z AUTO 18009KT 10SM SCT095 OVC110 28/22 A2991 RMK AO2 T02760220
KIFA 180435Z AUTO 18008KT 10SM OVC100 28/22 A2992 RMK AO2 T02750220
KIFA 180415Z AUTO 18006KT 10SM OVC100 27/22 A2991 RMK AO2 T02730221
KIFA 180355Z AUTO 18006KT 10SM OVC100 27/22 A2991 RMK AO2 T02710221
KIFA 180335Z AUTO 18006KT 10SM OVC100 27/22 A2991 RMK AO2 T02730220
KIFA 180315Z AUTO 18006KT 10SM BKN110 28/22 A2990 RMK AO2 T02750219
KIFA 180255Z AUTO 19006KT 10SM CLR 28/22 A2989 RMK AO2 T02750219
KIFA 180235Z AUTO 18005KT 10SM CLR 28/22 A2988 RMK AO2 T02770220
KIFA 180215Z AUTO 17006KT 10SM CLR 28/22 A2988 RMK AO2 T02810222
KIFA 180155Z AUTO 18007KT 10SM CLR 29/23 A2988 RMK AO2 T02850225
KIFA 180135Z AUTO 18008KT 10SM CLR 29/23 A2987 RMK AO2 T02870226
KIFA 180115Z AUTO 19007KT 10SM CLR 29/23 A2988 RMK AO2 T02900229
KIFA 180055Z AUTO 18006KT 10SM CLR 30/23 A2988 RMK AO2 T02950230
KIFA 180035Z AUTO 19008KT 10SM SCT120 30/23 A2989 RMK AO2 T03000228
KIFA 180015Z AUTO 19009KT 10SM BKN120 31/23 A2989 RMK AO2 T03050225
KIFA 172355Z AUTO 19011G18KT 10SM CLR 31/23 A2989 RMK AO2 6//// T03100226
KIFA 172335Z AUTO 19011G15KT 10SM SCT002 31/23 A2988 RMK AO2 T03130229
KIFA 172315Z AUTO 19011G16KT 10SM SCT048 SCT055 SCT065 31/23 A2989 RMK AO2 T03130226
KIFA 172255Z AUTO 20014G17KT 10SM SCT048 SCT055 SCT065 32/23 A2989 RMK AO2 T03160226
KIFA 172235Z AUTO 19014KT 10SM SCT048 32/23 A2989 RMK AO2 T03220232
KIFA 172215Z AUTO 19013G19KT 10SM 32/23 A2989 RMK AO2 T03200230
KIFA 172155Z AUTO 19011KT 10SM CLR 32/23 A2990 RMK AO2 T03150230
KIFA 172135Z AUTO 19010KT 10SM CLR 32/23 A2990 RMK AO2 T03160228
KIFA 172115Z AUTO 19009KT 10SM CLR 32/23 A2991 RMK AO2 T03150226
KIFA 172055Z AUTO 20012G19KT 10SM CLR 32/22 A2991 RMK AO2 T03160222
KIFA 172035Z AUTO 20014G19KT 10SM CLR 32/22 A2992 RMK AO2 T03200216
KIFA 172015Z AUTO 19018G22KT 10SM SCT044 33/22 A2991 RMK AO2 T03250219
KIFA 171955Z AUTO 19018G24KT 10SM SCT046 SCT065 34/22 A2991 RMK AO2 T03370223
KIFA 171935Z AUTO 20012G22KT 10SM CLR 33/22 A2991 RMK AO2 T03280223
KIFA 171915Z AUTO 19018G24KT 10SM CLR 34/22 A2991 RMK AO2 T03360220
KIFA 171855Z AUTO 19016G21KT 10SM CLR 34/23 A2990 RMK AO2 T03370225
KIFA 171835Z AUTO 21016G23KT 10SM CLR 33/22 A2990 RMK AO2 T03330218
KIFA 171815Z AUTO 20017G22KT 10SM CLR 33/22 A2991 RMK AO2 T03300218
KIFA 171755Z AUTO 22015G23KT 10SM CLR 33/22 A2991 RMK AO2 T03280220 10328 20240
KIFA 171735Z AUTO 21013KT 10SM CLR 33/22 A2992 RMK AO2 T03250221
KIFA 171715Z AUTO 21015G21KT 10SM CLR 33/22 A2992 RMK AO2 T03250220
KIFA 171655Z AUTO 20015KT 10SM CLR 32/22 A2992 RMK AO2 T03200224
KIFA 171635Z AUTO 21017G21KT 10SM CLR 32/22 A2992 RMK AO2 T03160219
KIFA 171615Z AUTO 21017G22KT 10SM CLR 31/22 A2992 RMK AO2 T03130218
KIFA 171555Z AUTO 21014G21KT 10SM CLR 31/22 A2991 RMK AO2 T03080220
KIFA 171535Z AUTO 21015G19KT 10SM CLR 30/22 A2992 RMK AO2 T03030217
KIFA 171515Z AUTO 21016KT 10SM CLR 30/22 A2992 RMK AO2 T03010216
KIFA 171455Z AUTO 21016G22KT 10SM CLR 30/22 A2992 RMK AO2 T02980216
KIFA 171435Z AUTO 21017G20KT 10SM CLR 29/22 A2992 RMK AO2 T02930217
KIFA 171415Z AUTO 20015G20KT 10SM CLR 28/22 A2992 RMK AO2 T02830219
KIFA 171355Z AUTO 20014G19KT 10SM CLR 28/22 A2992 RMK AO2 T02780216
KIFA 171335Z AUTO 19011G19KT 10SM CLR 27/22 A2991 RMK AO2 T02720217
KIFA 171315Z AUTO 19013G16KT 10SM CLR 27/22 A2991 RMK AO2 T02660216
KIFA 171255Z AUTO 19010G16KT 10SM CLR 26/22 A2991 RMK AO2 T02610217
KIFA 171235Z AUTO 18010KT 10SM CLR 26/22 A2991 RMK AO2 T02560216
KIFA 171215Z AUTO 18009KT 10SM CLR 25/22 A2991 RMK AO2 T02480215
KIFA 171155Z AUTO 18008KT 10SM CLR 24/21 A2991 RMK AO2 T02400212 10265 20231
KIFA 171135Z AUTO 17007KT 10SM CLR 24/21 A2991 RMK AO2 T02350212
KIFA 171115Z AUTO 17008KT 10SM CLR 24/21 A2991 RMK AO2 T02360212
KIFA 171055Z AUTO 16008KT 10SM CLR 24/21 A2990 RMK AO2 T02360211
KIFA 171035Z AUTO 15007KT 10SM CLR 23/21 A2990 RMK AO2 T02330210
KIFA 171015Z AUTO 17007KT 10SM CLR 23/21 A2990 RMK AO2 T02330210
KIFA 170955Z AUTO 17007KT 10SM CLR 24/21 A2990 RMK AO2 T02360211
KIFA 170935Z AUTO 16007KT 10SM CLR 24/21 A2990 RMK AO2 T02390211
KIFA 170915Z AUTO 16006KT 10SM CLR 24/21 A2990 RMK AO2 T02370212
KIFA 170855Z AUTO 16006KT 10SM CLR 24/21 A2990 RMK AO2 T02380212
KIFA 170835Z AUTO 17007KT 10SM CLR 24/21 A2989 RMK AO2 T02400211
KIFA 170815Z AUTO 17006KT 10SM CLR 25/21 A2989 RMK AO2 T02450211
KIFA 170755Z AUTO 18007KT 10SM CLR 25/21 A2989 RMK AO2 T02500212
KIFA 170735Z AUTO 18008KT 10SM CLR 25/21 A2989 RMK AO2 T02540212
KIFA 170715Z AUTO 18008KT 10SM CLR 26/21 A2989 RMK AO2 T02570212
KIFA 170655Z AUTO 18009KT 10SM CLR 26/21 A2989 RMK AO2 T02620212
KIFA 170635Z AUTO 19011KT 10SM CLR 27/21 A2988 RMK AO2 T02650212
KIFA 170615Z AUTO 19012KT 10SM CLR 27/21 A2987 RMK AO2 T02650212
KIFA 170555Z AUTO 19010KT 10SM CLR 26/21 A2986 RMK AO2 T02600213 10321 20258 403310212
KIFA 170535Z AUTO 18010KT 10SM CLR 26/22 A2987 RMK AO2 T02580215
KIFA 170515Z AUTO 17009KT 10SM CLR 26/22 A2987 RMK AO2 T02610217
KIFA 170455Z AUTO 15008KT 10SM CLR 26/22 A2988 RMK AO2 T02620219
KIFA 170435Z AUTO 15010KT 10SM CLR 27/22 A2988 RMK AO2 T02650220
KIFA 170415Z AUTO 16011KT 10SM CLR 27/22 A2987 RMK AO2 T02700220
KIFA 170355Z AUTO 15010KT 10SM CLR 27/22 A2987 RMK AO2 T02680223
KIFA 170335Z AUTO 15008KT 10SM CLR 27/23 A2987 RMK AO2 T02690225